Patos — WDF6110 — position and weather

sailwx.info

Track history (hours):
 
Tides and Currents Weather Stations Pressure Air Temp Water Temp Dewpoint Dewpoint Depression Visibility Wind Speed Wind Dir Waves Ship Positions

Patos

Owner: Demelza Charters LLP, Bellingham, WA. More information available from US FCC via Universal Licensing System and Coast Guard Vessel Documentation Center.

Last reported at 2016-May-14 16:32 UTC. Time now 2016-Aug-24 21:31 UTC.
Position N 50°57' W 127°34'.
Warning: this ship's position is months out of date.

Length 16 m.

Type: Pleasure craft. MMSI: 367470750.

Date/timePositionNaut miles runAvg speedWind from/ knotsBaromVisibWave heightAir tempDewpointWater temp
2016-May-14 16:32N 50°57' W 127°34'5 5.6
2016-May-14 15:33N 50°52' W 127°31'  
2016-May-11 14:33N 50°18' W 125°04'7 7.4
2016-May-11 13:33N 50°12' W 124°57'4 1.9
2016-May-11 11:25N 50°08' W 124°55'0 0.0
2016-May-11 09:25N 50°08' W 124°55'0 0.0
2016-May-11 08:25N 50°08' W 124°55'0 0.0
2016-May-11 06:19N 50°08' W 124°55'0 0.0
2016-May-11 04:13N 50°08' W 124°55'0 0.0
2016-May-11 03:19N 50°08' W 124°55'0 0.0
2016-May-10 21:33N 50°08' W 124°55'8 7.8
2016-May-10 20:29N 50°01' W 124°50'17 7.8
2016-May-10 18:14N 49°48' W 124°31'6 7.9
2016-May-10 17:29N 49°45' W 124°23'6 6.8
2016-May-10 16:33N 49°42' W 124°15'9 4.7
2016-May-10 14:33N 49°38' W 124°02'0 0.0
2016-May-10 13:33N 49°38' W 124°02'0 0.0
2016-May-10 12:33N 49°38' W 124°02'0 0.0
2016-May-10 11:33N 49°38' W 124°02'0 0.0
2016-May-10 10:33N 49°38' W 124°02'0 0.0
2016-May-10 09:33N 49°38' W 124°02'0 0.0
2016-May-10 08:33N 49°38' W 124°02'0 0.0
2016-May-10 07:33N 49°38' W 124°02'0 0.0
2016-May-10 06:33N 49°38' W 124°02'0 0.0
2016-May-10 05:33N 49°38' W 124°02'0 0.0
2016-May-10 04:33N 49°38' W 124°02'0 0.0
2016-May-10 03:33N 49°38' W 124°02'0 0.0
2016-May-10 02:33N 49°38' W 124°02'0 0.0
2016-May-10 01:33N 49°38' W 124°02'0 0.0
2016-May-10 00:33N 49°38' W 124°02'0 0.0
2016-May-09 23:33N 49°38' W 124°02'6 5.7
2016-May-09 22:33N 49°32' W 123°60'10 9.5
2016-May-09 21:33N 49°24' W 123°53'10 8.7
2016-May-09 20:27N 49°15' W 123°46'6 6.9
2016-May-09 19:33N 49°10' W 123°41'48 1.8
2016-May-08 17:22N 48°35' W 122°51'15 7.6
2016-May-08 15:27N 48°43' W 122°33'3 0.9
2016-May-08 12:18N 48°45' W 122°30'0 0.0
2016-May-07 17:22N 48°45' W 122°30'  
Track history (hours):
 
Tides and Currents Weather Stations Pressure Air Temp Water Temp Dewpoint Dewpoint Depression Visibility Wind Speed Wind Dir Waves Ship Positions

Patos

Owner: Demelza Charters LLP, Bellingham, WA. More information available from US FCC via Universal Licensing System and Coast Guard Vessel Documentation Center.

Last reported at 2016-May-14 16:32 UTC. Time now 2016-Aug-24 21:31 UTC.
Position N 50°57' W 127°34'.
Warning: this ship's position is months out of date.

Length 16 m.

Type: Pleasure craft. MMSI: 367470750.

Date/timePositionNaut miles runAvg speedWind from/ knotsBaromVisibWave heightAir tempDewpointWater temp
2016-May-14 16:32N 50°57' W 127°34'5 5.6
2016-May-14 15:33N 50°52' W 127°31'  
2016-May-11 14:33N 50°18' W 125°04'7 7.4
2016-May-11 13:33N 50°12' W 124°57'4 1.9
2016-May-11 11:25N 50°08' W 124°55'0 0.0
2016-May-11 09:25N 50°08' W 124°55'0 0.0
2016-May-11 08:25N 50°08' W 124°55'0 0.0
2016-May-11 06:19N 50°08' W 124°55'0 0.0
2016-May-11 04:13N 50°08' W 124°55'0 0.0
2016-May-11 03:19N 50°08' W 124°55'0 0.0
2016-May-10 21:33N 50°08' W 124°55'8 7.8
2016-May-10 20:29N 50°01' W 124°50'17 7.8
2016-May-10 18:14N 49°48' W 124°31'6 7.9
2016-May-10 17:29N 49°45' W 124°23'6 6.8
2016-May-10 16:33N 49°42' W 124°15'9 4.7
2016-May-10 14:33N 49°38' W 124°02'0 0.0
2016-May-10 13:33N 49°38' W 124°02'0 0.0
2016-May-10 12:33N 49°38' W 124°02'0 0.0
2016-May-10 11:33N 49°38' W 124°02'0 0.0
2016-May-10 10:33N 49°38' W 124°02'0 0.0
2016-May-10 09:33N 49°38' W 124°02'0 0.0
2016-May-10 08:33N 49°38' W 124°02'0 0.0
2016-May-10 07:33N 49°38' W 124°02'0 0.0
2016-May-10 06:33N 49°38' W 124°02'0 0.0
2016-May-10 05:33N 49°38' W 124°02'0 0.0
2016-May-10 04:33N 49°38' W 124°02'0 0.0
2016-May-10 03:33N 49°38' W 124°02'0 0.0
2016-May-10 02:33N 49°38' W 124°02'0 0.0
2016-May-10 01:33N 49°38' W 124°02'0 0.0
2016-May-10 00:33N 49°38' W 124°02'0 0.0
2016-May-09 23:33N 49°38' W 124°02'6 5.7
2016-May-09 22:33N 49°32' W 123°60'10 9.5
2016-May-09 21:33N 49°24' W 123°53'10 8.7
2016-May-09 20:27N 49°15' W 123°46'6 6.9
2016-May-09 19:33N 49°10' W 123°41'48 1.8
2016-May-08 17:22N 48°35' W 122°51'15 7.6
2016-May-08 15:27N 48°43' W 122°33'3 0.9
2016-May-08 12:18N 48°45' W 122°30'0 0.0
2016-May-07 17:22N 48°45' W 122°30'  

Dump ship's entire track history